sensor_id;sensor_type;location;lat;lon;timestamp;pressure;altitude;pressure_sealevel;temperature;humidity
43281;BME280;62175;49.416;8.690;2023-02-13T10:25:47;102631.97;;;9.22;52.74
43281;BME280;62175;49.416;8.690;2023-02-13T10:36:50;102624.35;;;9.56;52.36
43281;BME280;62175;49.416;8.690;2023-02-13T10:51:50;102613.91;;;9.86;51.66
43281;BME280;62175;49.416;8.690;2023-02-13T11:01:56;102606.00;;;10.13;52.30
43281;BME280;62175;49.416;8.690;2023-02-13T11:08:29;102606.75;;;10.11;51.64
43281;BME280;62175;49.416;8.690;2023-02-13T11:27:39;102590.90;;;9.85;54.66
43281;BME280;62175;49.416;8.690;2023-02-13T12:57:19;102519.12;;;11.06;51.30
43281;BME280;62175;49.416;8.690;2023-02-13T13:21:47;102495.83;;;11.24;50.23
43281;BME280;62175;49.416;8.690;2023-02-13T13:24:26;102491.96;;;10.46;49.26
43281;BME280;62175;49.416;8.690;2023-02-13T13:26:58;102489.40;;;11.52;48.42
43281;BME280;62175;49.416;8.690;2023-02-13T13:29:33;102486.23;;;11.65;48.15
43281;BME280;62175;49.416;8.690;2023-02-13T13:32:06;102486.65;;;11.21;48.63
43281;BME280;62175;49.416;8.690;2023-02-13T13:34:37;102482.35;;;11.21;49.36
43281;BME280;62175;49.416;8.690;2023-02-13T13:37:10;102477.78;;;11.51;48.46
43281;BME280;62175;49.416;8.690;2023-02-13T13:39:48;102477.56;;;11.34;49.21
43281;BME280;62175;49.416;8.690;2023-02-13T13:42:24;102479.14;;;11.50;49.64
43281;BME280;62175;49.416;8.690;2023-02-13T13:45:06;102477.16;;;11.34;49.25
43281;BME280;62175;49.416;8.690;2023-02-13T13:47:46;102475.03;;;11.19;49.12
43281;BME280;62175;49.416;8.690;2023-02-13T13:50:22;102476.88;;;11.16;49.38
43281;BME280;62175;49.416;8.690;2023-02-13T13:53:08;102474.10;;;11.14;50.18
43281;BME280;62175;49.416;8.690;2023-02-13T13:56:09;102470.99;;;11.44;49.52
43281;BME280;62175;49.416;8.690;2023-02-13T13:58:39;102467.56;;;11.31;49.80
43281;BME280;62175;49.416;8.690;2023-02-13T14:03:20;102468.00;;;11.37;50.05
43281;BME280;62175;49.416;8.690;2023-02-13T14:06:00;102465.98;;;11.39;49.39
43281;BME280;62175;49.416;8.690;2023-02-13T14:11:26;102456.84;;;11.73;49.72
43281;BME280;62175;49.416;8.690;2023-02-13T14:13:54;102453.10;;;11.74;48.58
43281;BME280;62175;49.416;8.690;2023-02-13T14:16:40;102448.54;;;11.42;49.11
43281;BME280;62175;49.416;8.690;2023-02-13T14:19:24;102442.21;;;11.58;49.09
43281;BME280;62175;49.416;8.690;2023-02-13T14:22:48;102439.82;;;11.24;50.20
43281;BME280;62175;49.416;8.690;2023-02-13T14:25:22;102444.19;;;11.35;50.43
43281;BME280;62175;49.416;8.690;2023-02-13T14:27:56;102443.01;;;11.60;50.29
43281;BME280;62175;49.416;8.690;2023-02-13T14:30:28;102443.27;;;11.51;50.38
43281;BME280;62175;49.416;8.690;2023-02-13T14:33:00;102446.79;;;11.43;49.79
43281;BME280;62175;49.416;8.690;2023-02-13T14:35:30;102445.27;;;11.31;50.41
43281;BME280;62175;49.416;8.690;2023-02-13T14:38:02;102443.00;;;11.99;49.48
43281;BME280;62175;49.416;8.690;2023-02-13T14:40:43;102444.52;;;11.74;49.71
43281;BME280;62175;49.416;8.690;2023-02-13T14:44:19;102438.38;;;11.52;49.45
43281;BME280;62175;49.416;8.690;2023-02-13T14:47:02;102437.12;;;11.02;50.44
43281;BME280;62175;49.416;8.690;2023-02-13T14:50:55;102435.08;;;11.66;50.15
43281;BME280;62175;49.416;8.690;2023-02-13T14:53:27;102431.49;;;11.69;50.12
43281;BME280;62175;49.416;8.690;2023-02-13T14:56:17;102433.36;;;11.87;49.26
43281;BME280;62175;49.416;8.690;2023-02-13T14:58:59;102433.73;;;11.54;50.35
43281;BME280;62175;49.416;8.690;2023-02-13T15:01:32;102434.12;;;11.41;50.13
43281;BME280;62175;49.416;8.690;2023-02-13T15:04:08;102430.63;;;11.47;50.16
43281;BME280;62175;49.416;8.690;2023-02-13T15:06:41;102425.59;;;11.50;50.05
43281;BME280;62175;49.416;8.690;2023-02-13T15:09:26;102425.82;;;11.75;49.70
43281;BME280;62175;49.416;8.690;2023-02-13T15:11:55;102428.07;;;11.72;49.86
43281;BME280;62175;49.416;8.690;2023-02-13T15:14:30;102428.46;;;11.71;50.35
43281;BME280;62175;49.416;8.690;2023-02-13T15:17:10;102433.32;;;11.44;50.50
43281;BME280;62175;49.416;8.690;2023-02-13T15:19:45;102434.53;;;11.64;50.40
43281;BME280;62175;49.416;8.690;2023-02-13T15:22:19;102433.42;;;11.61;50.46
43281;BME280;62175;49.416;8.690;2023-02-13T15:24:50;102437.32;;;11.66;50.49
43281;BME280;62175;49.416;8.690;2023-02-13T15:27:20;102431.54;;;11.83;50.18
43281;BME280;62175;49.416;8.690;2023-02-13T15:29:57;102434.61;;;11.58;50.29
43281;BME280;62175;49.416;8.690;2023-02-13T15:32:31;102435.70;;;11.77;49.95
43281;BME280;62175;49.416;8.690;2023-02-13T15:35:20;102435.62;;;11.42;50.55
43281;BME280;62175;49.416;8.690;2023-02-13T15:37:49;102431.62;;;11.51;50.02
43281;BME280;62175;49.416;8.690;2023-02-13T15:40:24;102430.06;;;11.23;50.59
43281;BME280;62175;49.416;8.690;2023-02-13T15:42:55;102431.21;;;11.70;50.26
43281;BME280;62175;49.416;8.690;2023-02-13T15:45:33;102428.15;;;11.66;50.46
43281;BME280;62175;49.416;8.690;2023-02-13T15:48:11;102426.87;;;11.52;50.37
43281;BME280;62175;49.416;8.690;2023-02-13T15:50:42;102426.78;;;11.44;50.52
43281;BME280;62175;49.416;8.690;2023-02-13T15:53:50;102427.96;;;12.26;49.61
43281;BME280;62175;49.416;8.690;2023-02-13T15:56:27;102427.96;;;11.72;50.13
43281;BME280;62175;49.416;8.690;2023-02-13T15:58:56;102426.71;;;11.48;49.65
43281;BME280;62175;49.416;8.690;2023-02-13T16:01:24;102427.32;;;11.50;50.50
43281;BME280;62175;49.416;8.690;2023-02-13T16:04:07;102429.54;;;11.39;50.44
43281;BME280;62175;49.416;8.690;2023-02-13T16:06:36;102421.32;;;11.56;50.54
43281;BME280;62175;49.416;8.690;2023-02-13T16:09:05;102420.78;;;11.50;50.49
43281;BME280;62175;49.416;8.690;2023-02-13T16:11:34;102418.83;;;11.48;50.01
43281;BME280;62175;49.416;8.690;2023-02-13T16:14:07;102415.93;;;11.48;49.71
43281;BME280;62175;49.416;8.690;2023-02-13T16:16:46;102413.71;;;11.80;49.66
43281;BME280;62175;49.416;8.690;2023-02-13T16:19:25;102415.34;;;11.55;49.12
43281;BME280;62175;49.416;8.690;2023-02-13T16:21:54;102412.85;;;11.49;48.42
43281;BME280;62175;49.416;8.690;2023-02-13T16:25:29;102413.67;;;11.62;49.17
43281;BME280;62175;49.416;8.690;2023-02-13T16:28:00;102416.27;;;11.32;48.88
43281;BME280;62175;49.416;8.690;2023-02-13T16:30:32;102417.23;;;11.28;49.05
43281;BME280;62175;49.416;8.690;2023-02-13T16:33:11;102417.26;;;11.63;48.93
43281;BME280;62175;49.416;8.690;2023-02-13T16:35:46;102414.98;;;11.61;49.24
43281;BME280;62175;49.416;8.690;2023-02-13T16:38:32;102416.80;;;11.55;47.43
43281;BME280;62175;49.416;8.690;2023-02-13T16:41:01;102423.13;;;11.35;48.17
43281;BME280;62175;49.416;8.690;2023-02-13T16:43:42;102425.29;;;11.40;47.49
43281;BME280;62175;49.416;8.690;2023-02-13T16:46:26;102425.29;;;11.40;48.08
43281;BME280;62175;49.416;8.690;2023-02-13T16:49:59;102430.04;;;11.41;47.47
43281;BME280;62175;49.416;8.690;2023-02-13T16:52:32;102431.22;;;11.06;47.70
43281;BME280;62175;49.416;8.690;2023-02-13T16:55:00;102434.84;;;11.41;48.95
43281;BME280;62175;49.416;8.690;2023-02-13T16:57:30;102436.93;;;11.51;47.57
43281;BME280;62175;49.416;8.690;2023-02-13T17:00:04;102440.79;;;11.07;47.92
43281;BME280;62175;49.416;8.690;2023-02-13T17:02:36;102442.01;;;11.59;47.91
43281;BME280;62175;49.416;8.690;2023-02-13T17:05:23;102443.31;;;11.07;47.88
43281;BME280;62175;49.416;8.690;2023-02-13T17:07:53;102446.96;;;11.44;47.80
43281;BME280;62175;49.416;8.690;2023-02-13T17:10:33;102447.88;;;11.36;47.37
43281;BME280;62175;49.416;8.690;2023-02-13T17:13:05;102450.16;;;11.11;47.47
43281;BME280;62175;49.416;8.690;2023-02-13T17:15:45;102453.14;;;10.85;47.34
43281;BME280;62175;49.416;8.690;2023-02-13T17:18:15;102455.39;;;11.28;47.91
43281;BME280;62175;49.416;8.690;2023-02-13T17:20:44;102460.24;;;11.32;48.13
43281;BME280;62175;49.416;8.690;2023-02-13T17:23:14;102463.69;;;11.19;48.48
43281;BME280;62175;49.416;8.690;2023-02-13T17:25:51;102463.96;;;11.24;49.34
43281;BME280;62175;49.416;8.690;2023-02-13T17:28:38;102467.60;;;10.97;48.53
43281;BME280;62175;49.416;8.690;2023-02-13T17:43:38;102468.40;;;11.42;49.60
43281;BME280;62175;49.416;8.690;2023-02-13T17:46:05;102468.14;;;10.78;50.04
43281;BME280;62175;49.416;8.690;2023-02-13T17:48:36;102470.29;;;10.68;50.05
43281;BME280;62175;49.416;8.690;2023-02-13T18:08:57;102477.63;;;10.57;51.21
43281;BME280;62175;49.416;8.690;2023-02-13T18:11:24;102478.96;;;10.49;50.50
43281;BME280;62175;49.416;8.690;2023-02-13T18:13:51;102474.53;;;10.77;48.77
43281;BME280;62175;49.416;8.690;2023-02-13T18:16:21;102474.03;;;10.51;49.97
43281;BME280;62175;49.416;8.690;2023-02-13T18:18:52;102475.62;;;10.97;49.54
43281;BME280;62175;49.416;8.690;2023-02-13T18:21:24;102478.79;;;10.86;49.81
43281;BME280;62175;49.416;8.690;2023-02-13T18:23:54;102480.48;;;10.72;48.99
43281;BME280;62175;49.416;8.690;2023-02-13T18:26:21;102477.71;;;10.93;49.26
43281;BME280;62175;49.416;8.690;2023-02-13T18:28:50;102475.01;;;10.81;49.22
43281;BME280;62175;49.416;8.690;2023-02-13T18:31:21;102473.24;;;10.99;49.98
43281;BME280;62175;49.416;8.690;2023-02-13T18:33:50;102471.08;;;11.10;49.00
43281;BME280;62175;49.416;8.690;2023-02-13T18:36:21;102470.04;;;10.73;48.88
43281;BME280;62175;49.416;8.690;2023-02-13T18:38:50;102472.01;;;11.20;48.78
43281;BME280;62175;49.416;8.690;2023-02-13T18:41:18;102471.34;;;10.95;47.40
43281;BME280;62175;49.416;8.690;2023-02-13T18:43:47;102472.22;;;11.02;48.58
43281;BME280;62175;49.416;8.690;2023-02-13T18:46:14;102473.67;;;11.07;48.36
43281;BME280;62175;49.416;8.690;2023-02-13T18:48:41;102472.68;;;10.96;48.45
43281;BME280;62175;49.416;8.690;2023-02-13T18:51:09;102476.52;;;11.04;46.69
43281;BME280;62175;49.416;8.690;2023-02-13T18:53:36;102476.74;;;11.04;48.26
43281;BME280;62175;49.416;8.690;2023-02-13T18:56:05;102476.52;;;10.80;48.41
43281;BME280;62175;49.416;8.690;2023-02-13T18:58:33;102476.96;;;11.06;47.78
43281;BME280;62175;49.416;8.690;2023-02-13T19:01:08;102476.58;;;11.03;47.77
43281;BME280;62175;49.416;8.690;2023-02-13T19:03:39;102473.16;;;10.85;47.36
43281;BME280;62175;49.416;8.690;2023-02-13T19:06:10;102471.10;;;10.81;47.23
43281;BME280;62175;49.416;8.690;2023-02-13T19:08:38;102462.48;;;10.92;46.93
43281;BME280;62175;49.416;8.690;2023-02-13T19:11:08;102464.96;;;10.84;46.94
43281;BME280;62175;49.416;8.690;2023-02-13T19:13:36;102463.89;;;11.31;47.68
43281;BME280;62175;49.416;8.690;2023-02-13T19:16:17;102464.95;;;11.09;47.75
43281;BME280;62175;49.416;8.690;2023-02-13T19:18:49;102466.35;;;10.83;46.67
43281;BME280;62175;49.416;8.690;2023-02-13T19:21:17;102467.30;;;11.05;47.76
43281;BME280;62175;49.416;8.690;2023-02-13T19:23:46;102469.65;;;10.83;47.01
43281;BME280;62175;49.416;8.690;2023-02-13T19:26:15;102467.84;;;11.36;48.38
43281;BME280;62175;49.416;8.690;2023-02-13T19:28:44;102465.42;;;10.75;47.26
43281;BME280;62175;49.416;8.690;2023-02-13T19:31:16;102463.96;;;10.78;46.26
43281;BME280;62175;49.416;8.690;2023-02-13T19:33:44;102463.11;;;10.87;47.01
43281;BME280;62175;49.416;8.690;2023-02-13T19:36:16;102463.15;;;10.91;47.86
43281;BME280;62175;49.416;8.690;2023-02-13T19:38:44;102470.37;;;10.86;46.40
43281;BME280;62175;49.416;8.690;2023-02-13T19:41:15;102471.25;;;10.61;46.23
43281;BME280;62175;49.416;8.690;2023-02-13T19:47:46;102481.23;;;11.31;47.44
43281;BME280;62175;49.416;8.690;2023-02-13T19:52:04;102482.99;;;11.02;46.87
43281;BME280;62175;49.416;8.690;2023-02-13T19:54:33;102486.49;;;10.63;48.13
43281;BME280;62175;49.416;8.690;2023-02-13T19:57:20;102489.80;;;11.08;46.79
43281;BME280;62175;49.416;8.690;2023-02-13T19:59:52;102490.03;;;11.05;47.74
43281;BME280;62175;49.416;8.690;2023-02-13T20:02:20;102487.76;;;10.97;47.26
43281;BME280;62175;49.416;8.690;2023-02-13T20:04:49;102484.18;;;11.02;47.45
43281;BME280;62175;49.416;8.690;2023-02-13T20:07:17;102482.61;;;10.78;46.22
43281;BME280;62175;49.416;8.690;2023-02-13T21:22:14;102471.73;;;10.12;48.09
43281;BME280;62175;49.416;8.690;2023-02-13T21:34:04;102463.07;;;10.39;47.03
43281;BME280;62175;49.416;8.690;2023-02-13T21:36:36;102463.79;;;10.38;47.57
43281;BME280;62175;49.416;8.690;2023-02-13T21:39:07;102455.20;;;9.84;47.21
43281;BME280;62175;49.416;8.690;2023-02-13T21:45:38;102455.48;;;10.25;47.15
43281;BME280;62175;49.416;8.690;2023-02-13T21:50:09;102454.25;;;9.72;46.91
43281;BME280;62175;49.416;8.690;2023-02-13T22:20:47;102450.91;;;9.73;49.65
43281;BME280;62175;49.416;8.690;2023-02-13T22:34:12;102450.06;;;9.67;47.91
43281;BME280;62175;49.416;8.690;2023-02-13T22:49:37;102457.86;;;9.70;48.35
